Time;durP1;ratioP1;P1;durP2;ratioP2;P2;SDS_P1;SDS_P2;PMS_P1;PMS_P2;Temp;Humidity;BMP_temperature;BMP_pressure;BME280_temperature;BME280_humidity;BME280_pressure;Samples;Min_cycle;Max_cycle;Signal;HPM_P1;HPM_P2
2021/12/16 00:09:37;;;;;;;8.18;1.02;;;;;;;0.47;96.30;99343.03;5095548;28;20486;-70
2021/12/16 00:31:30;;;;;;;5.20;1.02;;;;;;;0.39;97.02;99347.59;5116206;28;20135;-67
2021/12/16 00:34:04;;;;;;;2.75;1.08;;;;;;;0.41;96.90;99346.63;5115975;28;20059;-68
2021/12/16 00:36:35;;;;;;;3.13;1.35;;;;;;;0.37;96.81;99336.56;5115864;28;20500;-64
2021/12/16 00:39:05;;;;;;;0.88;0.57;;;;;;;0.44;96.37;99348.25;5115846;28;20139;-69
2021/12/16 00:41:32;;;;;;;4.53;1.27;;;;;;;0.44;97.33;99355.94;5115784;28;20075;-64
2021/12/16 00:44:05;;;;;;;;;;;;;;;0.40;97.35;99362.03;5116460;28;20051;-65
2021/12/16 00:46:57;;;;;;;6.28;1.67;;;;;;;0.42;96.73;99368.75;5115983;28;19930;-67
2021/12/16 00:49:35;;;;;;;2.60;0.90;;;;;;;0.40;96.93;99367.97;5115725;28;20058;-70
2021/12/16 00:55:01;;;;;;;7.78;0.90;;;;;;;0.38;97.29;99359.50;5115830;28;20050;-69
2021/12/16 00:57:28;;;;;;;2.80;1.00;;;;;;;0.39;97.75;99368.88;5115672;28;20048;-63
2021/12/16 00:59:56;;;;;;;6.72;0.68;;;;;;;0.38;97.98;99364.63;5115511;28;20043;-63
2021/12/16 01:02:43;;;;;;;3.17;0.90;;;;;;;0.39;97.93;99361.22;5115571;28;20044;-62
2021/12/16 01:05:46;;;;;;;6.95;1.30;;;;;;;0.39;97.66;99355.25;5115758;28;20138;-68
2021/12/16 01:36:25;;;;;;;2.13;0.70;;;;;;;0.23;98.04;99349.81;5032058;28;20472;-66
2021/12/16 01:39:40;;;;;;;1.10;1.00;;;;;;;0.19;98.59;99350.84;5102712;28;20047;-70
2021/12/16 01:42:30;;;;;;;3.45;0.80;;;;;;;0.16;98.48;99343.28;5114666;28;20101;-64
2021/12/16 01:47:55;;;;;;;4.00;1.35;;;;;;;0.10;98.57;99358.81;5114868;28;20069;-70
2021/12/16 01:50:27;;;;;;;2.08;0.70;;;;;;;0.10;99.21;99357.09;5114337;28;20093;-69
2021/12/16 01:55:38;;;;;;;3.05;0.88;;;;;;;0.04;98.53;99348.81;5114172;28;20048;-67
2021/12/16 01:58:13;;;;;;;1.80;0.80;;;;;;;0.07;98.91;99352.09;5114195;28;20043;-69
2021/12/16 02:00:56;;;;;;;1.85;0.82;;;;;;;0.01;99.02;99357.41;5113867;28;20093;-70
2021/12/16 02:03:36;;;;;;;2.97;1.00;;;;;;;-0.05;99.43;99357.63;5114139;28;20402;-62
2021/12/16 02:06:10;;;;;;;5.60;1.20;;;;;;;-0.06;99.71;99355.94;5113989;28;20051;-63
2021/12/16 02:08:40;;;;;;;5.72;1.10;;;;;;;-0.07;99.54;99369.63;5114387;28;20044;-62
2021/12/16 02:11:27;;;;;;;4.63;1.30;;;;;;;0.00;99.46;99363.44;5114150;28;20073;-63
2021/12/16 02:28:06;;;;;;;5.73;1.10;;;;;;;0.01;98.67;99380.44;5093724;28;20093;-71
2021/12/16 02:33:38;;;;;;;5.28;1.17;;;;;;;0.02;98.38;99384.66;5093414;28;20051;-69
2021/12/16 02:36:23;;;;;;;5.55;1.33;;;;;;;0.04;98.80;99372.66;5092958;28;20131;-67
2021/12/16 02:38:55;;;;;;;7.10;1.33;;;;;;;0.03;98.25;99380.38;5093095;28;20500;-69
2021/12/16 02:41:23;;;;;;;3.60;1.23;;;;;;;0.06;98.46;99381.13;5093227;28;20126;-70
2021/12/16 02:44:08;;;;;;;6.50;1.55;;;;;;;0.02;98.19;99400.00;5093208;28;20135;-67
2021/12/16 02:49:20;;;;;;;7.05;1.75;;;;;;;0.01;98.28;99402.63;5093195;28;20174;-68
2021/12/16 02:51:47;;;;;;;4.43;1.00;;;;;;;0.00;98.14;99404.34;5093280;28;20051;-70
2021/12/16 02:54:16;;;;;;;8.02;1.17;;;;;;;-0.02;97.61;99395.88;5092807;28;20084;-68
2021/12/16 02:56:43;;;;;;;6.28;1.08;;;;;;;-0.07;97.94;99402.88;5092986;28;20083;-69
2021/12/16 02:59:11;;;;;;;4.35;1.35;;;;;;;-0.09;97.96;99396.97;5093147;28;20169;-69
2021/12/16 03:01:41;;;;;;;2.40;1.02;;;;;;;-0.07;98.34;99398.59;5092956;28;20082;-70
2021/12/16 03:04:12;;;;;;;3.28;1.23;;;;;;;-0.15;98.65;99392.91;5092646;28;20080;-70
2021/12/16 03:06:40;;;;;;;7.95;1.02;;;;;;;-0.23;98.02;99400.81;5092662;28;20052;-70
2021/12/16 03:09:10;;;;;;;7.93;1.38;;;;;;;-0.30;99.07;99403.63;5092641;28;20047;-70
2021/12/16 03:11:47;;;;;;;2.55;1.17;;;;;;;-0.29;98.75;99413.78;5092557;28;20093;-70
2021/12/16 03:17:07;;;;;;;11.93;1.40;;;;;;;-0.31;98.97;99396.81;5109907;28;20051;-68
2021/12/16 03:19:45;;;;;;;4.25;1.50;;;;;;;-0.32;98.37;99406.22;5112948;28;20096;-65
2021/12/16 03:22:26;;;;;;;6.60;1.70;;;;;;;-0.28;98.77;99404.41;5112706;28;20138;-69
2021/12/16 03:25:10;;;;;;;9.85;1.58;;;;;;;-0.23;98.35;99410.22;5112926;28;20055;-66
2021/12/16 03:30:48;;;;;;;2.85;1.20;;;;;;;-0.25;98.58;99401.75;5112483;28;20051;-67
2021/12/16 03:33:43;;;;;;;4.05;1.45;;;;;;;-0.23;98.10;99394.88;5112388;28;20095;-63
2021/12/16 03:36:25;;;;;;;6.85;1.25;;;;;;;-0.23;98.88;99405.94;5112201;28;20168;-69
2021/12/16 03:38:55;;;;;;;10.88;2.10;;;;;;;-0.35;98.66;99406.31;5112611;28;20478;-68
2021/12/16 03:41:23;;;;;;;4.07;1.05;;;;;;;-0.25;98.38;99407.69;5112711;28;20143;-68
2021/12/16 03:43:51;;;;;;;;;;;;;;;-0.23;98.04;99408.47;5113156;28;20130;-66
2021/12/16 03:46:27;;;;;;;9.20;1.98;;;;;;;-0.30;98.39;99412.13;5112400;28;19920;-66
2021/12/16 03:48:59;;;;;;;8.32;1.02;;;;;;;-0.29;98.71;99416.34;5112390;28;20040;-65
2021/12/16 03:51:29;;;;;;;10.27;1.55;;;;;;;-0.30;98.62;99417.22;5112720;28;20052;-65
2021/12/16 03:54:00;;;;;;;8.32;1.83;;;;;;;-0.34;98.48;99415.63;5112479;28;20048;-67
2021/12/16 03:56:28;;;;;;;7.97;2.60;;;;;;;-0.36;98.96;99408.91;5112557;28;20182;-63
2021/12/16 03:58:57;;;;;;;4.15;1.63;;;;;;;-0.35;98.42;99408.88;5112521;28;20072;-64
2021/12/16 04:01:28;;;;;;;4.88;1.50;;;;;;;-0.37;99.16;99420.84;5112447;28;20043;-64
2021/12/16 04:03:57;;;;;;;7.90;2.13;;;;;;;-0.31;98.62;99418.13;5112449;28;20053;-63
2021/12/16 04:06:27;;;;;;;5.47;1.55;;;;;;;-0.35;99.05;99411.44;5112153;28;20044;-64
2021/12/16 04:08:54;;;;;;;6.68;1.73;;;;;;;-0.38;99.54;99408.97;5112483;28;20456;-66
2021/12/16 04:11:25;;;;;;;2.70;0.95;;;;;;;-0.41;99.85;99406.53;5112662;28;20078;-67
2021/12/16 04:13:56;;;;;;;11.57;1.80;;;;;;;-0.37;99.56;99414.91;5112612;28;20044;-67
2021/12/16 04:16:28;;;;;;;10.57;1.55;;;;;;;-0.41;99.41;99405.66;5112685;28;20405;-66
2021/12/16 04:18:56;;;;;;;8.82;1.83;;;;;;;-0.39;99.84;99412.41;5112203;28;20059;-65
2021/12/16 04:21:26;;;;;;;7.70;1.20;;;;;;;-0.44;100.00;99419.38;5112342;28;20127;-64
2021/12/16 04:23:54;;;;;;;3.08;1.00;;;;;;;-0.46;99.83;99421.16;5112461;28;20584;-64
2021/12/16 04:26:21;;;;;;;5.65;1.55;;;;;;;-0.53;100.00;99422.22;5112335;28;20040;-63
2021/12/16 04:28:48;;;;;;;;;;;;;;;-0.50;100.00;99422.97;5112682;28;20138;-64
2021/12/16 04:31:15;;;;;;;10.85;2.05;;;;;;;-0.56;100.00;99419.78;5112158;28;20424;-66
2021/12/16 04:33:44;;;;;;;9.02;1.48;;;;;;;-0.56;100.00;99423.16;5112115;28;20059;-65
2021/12/16 04:36:13;;;;;;;8.90;1.83;;;;;;;-0.60;100.00;99433.50;5111985;28;20134;-68
2021/12/16 04:38:42;;;;;;;5.65;1.73;;;;;;;-0.62;100.00;99423.31;5111919;28;20054;-65
2021/12/16 04:41:11;;;;;;;7.25;1.35;;;;;;;-0.67;100.00;99420.94;5112165;28;20446;-66
2021/12/16 04:43:40;;;;;;;7.30;1.75;;;;;;;-0.67;100.00;99428.59;5111986;28;20075;-65
2021/12/16 04:46:13;;;;;;;8.65;1.50;;;;;;;-0.68;100.00;99419.25;5111863;28;20048;-65
2021/12/16 04:48:43;;;;;;;11.68;2.65;;;;;;;-0.69;100.00;99416.75;5114200;28;20134;-67
2021/12/16 04:51:11;;;;;;;5.85;1.75;;;;;;;-0.78;100.00;99417.03;5115812;28;20138;-65
2021/12/16 04:53:41;;;;;;;7.68;1.95;;;;;;;-0.74;100.00;99421.16;5115828;28;20130;-65
2021/12/16 04:56:10;;;;;;;8.38;1.92;;;;;;;-0.73;100.00;99422.81;5115588;28;20142;-67
2021/12/16 04:58:38;;;;;;;4.05;1.58;;;;;;;-0.74;100.00;99421.16;5115581;28;20138;-64
2021/12/16 05:01:06;;;;;;;7.88;1.42;;;;;;;-0.71;100.00;99416.78;5115403;28;20401;-64
2021/12/16 05:03:33;;;;;;;9.55;2.00;;;;;;;-0.72;100.00;99414.28;5115292;28;20139;-69
2021/12/16 05:06:02;;;;;;;8.15;1.10;;;;;;;-0.64;100.00;99422.56;5115406;28;20071;-63
2021/12/16 05:08:29;;;;;;;8.02;1.70;;;;;;;-0.71;100.00;99419.34;5115664;28;20071;-64
2021/12/16 05:10:59;;;;;;;;;;;;;;;-0.72;100.00;99417.69;5115982;28;20048;-69
2021/12/16 05:13:27;;;;;;;5.07;0.93;;;;;;;-0.73;100.00;99416.00;5115546;28;19919;-68
2021/12/16 05:15:57;;;;;;;7.93;1.60;;;;;;;-0.70;100.00;99423.56;5114740;22;20106;-73
2021/12/16 05:18:30;;;;;;;12.02;2.05;;;;;;;-0.84;100.00;99425.69;5094672;28;20475;-72
2021/12/16 05:20:58;;;;;;;3.75;1.17;;;;;;;-0.71;100.00;99432.13;5094766;28;20363;-70
2021/12/16 05:26:20;;;;;;;9.40;1.73;;;;;;;-0.72;100.00;99443.22;5094763;28;20050;-71
2021/12/16 05:28:51;;;;;;;9.90;2.13;;;;;;;-0.72;99.95;99444.91;5094691;28;20047;-71
2021/12/16 05:31:18;;;;;;;11.68;1.80;;;;;;;-0.78;100.00;99447.66;5094306;28;20058;-71
2021/12/16 05:33:46;;;;;;;10.48;2.15;;;;;;;-0.82;99.91;99439.28;5094453;28;20048;-72
2021/12/16 05:36:13;;;;;;;5.93;1.70;;;;;;;-0.82;99.86;99444.38;5094309;28;20083;-71
2021/12/16 05:38:42;;;;;;;6.47;1.75;;;;;;;-0.81;100.00;99446.03;5094400;28;20048;-72
2021/12/16 05:41:12;;;;;;;10.25;1.58;;;;;;;-0.85;99.63;99448.72;5094139;28;20085;-69
2021/12/16 05:43:40;;;;;;;11.82;1.70;;;;;;;-0.90;99.79;99449.72;5094398;28;20040;-72
2021/12/16 05:46:08;;;;;;;6.25;1.70;;;;;;;-0.93;100.00;99446.38;5094538;28;20143;-68
2021/12/16 05:48:38;;;;;;;6.53;1.23;;;;;;;-0.97;99.73;99447.38;5093901;28;20076;-71
2021/12/16 05:51:09;;;;;;;3.47;1.23;;;;;;;-1.01;99.67;99451.72;5093894;28;20130;-72
2021/12/16 05:53:38;;;;;;;5.72;1.10;;;;;;;-0.90;99.86;99462.47;5093722;28;20135;-72
2021/12/16 05:56:07;;;;;;;11.93;2.15;;;;;;;-1.12;99.97;99457.13;5093669;28;20052;-69
2021/12/16 05:58:36;;;;;;;12.15;1.77;;;;;;;-0.96;100.00;99461.81;5093749;28;20127;-72
2021/12/16 06:01:08;;;;;;;8.25;1.40;;;;;;;-0.93;100.00;99461.72;5093190;28;20078;-73
2021/12/16 06:03:36;;;;;;;9.30;2.00;;;;;;;-0.97;100.00;99467.81;5093787;28;20052;-73
2021/12/16 06:06:03;;;;;;;;;;;;;;;-0.95;99.60;99468.56;5093904;28;20480;-73
2021/12/16 06:08:30;;;;;;;2.00;1.40;;;;;;;-0.91;99.56;99465.06;5093827;28;20327;-73
2021/12/16 06:11:21;;;;;;;7.50;1.50;;;;;;;-0.99;99.24;99467.00;5094340;28;20044;-73
2021/12/16 06:14:09;;;;;;;4.53;1.20;;;;;;;-1.04;99.46;99468.84;5093655;28;20052;-71
2021/12/16 06:27:37;;;;;;;10.75;2.33;;;;;;;-1.18;100.00;99481.97;5093705;28;20097;-64
2021/12/16 06:30:08;;;;;;;7.18;1.50;;;;;;;-1.36;100.00;99475.69;5093710;28;20386;-64
2021/12/16 06:32:35;;;;;;;9.35;1.92;;;;;;;-1.41;100.00;99480.06;5093331;28;20131;-64
2021/12/16 06:35:02;;;;;;;7.25;1.83;;;;;;;-1.48;100.00;99476.00;5093510;28;20070;-63
2021/12/16 06:37:29;;;;;;;12.43;2.70;;;;;;;-1.43;100.00;99484.38;5093398;28;20139;-63
2021/12/16 06:39:56;;;;;;;5.78;2.20;;;;;;;-1.52;100.00;99479.50;5093267;28;20135;-65
2021/12/16 06:42:25;;;;;;;8.75;2.28;;;;;;;-1.57;100.00;99477.91;5093412;28;20130;-64
2021/12/16 06:44:56;;;;;;;10.70;2.50;;;;;;;-1.66;100.00;99490.06;5072480;28;20044;-65
2021/12/16 06:47:32;;;;;;;8.70;2.38;;;;;;;-1.58;100.00;99488.97;5072294;28;20063;-64
2021/12/16 06:49:59;;;;;;;4.85;1.88;;;;;;;-1.59;100.00;99489.88;5083512;28;20078;-64
2021/12/16 06:52:32;;;;;;;8.05;1.75;;;;;;;-1.55;100.00;99496.53;5072198;28;20049;-64
2021/12/16 06:55:10;;;;;;;3.53;1.42;;;;;;;-1.69;100.00;99500.34;5072884;28;20136;-68
2021/12/16 06:57:43;;;;;;;9.77;1.63;;;;;;;-1.78;100.00;99507.31;5072789;28;20143;-65
2021/12/16 07:00:18;;;;;;;7.82;1.45;;;;;;;-1.63;100.00;99511.22;5072086;28;20044;-64
2021/12/16 07:02:59;;;;;;;6.13;1.70;;;;;;;-1.58;100.00;99514.47;5072469;28;20044;-66
2021/12/16 07:05:31;;;;;;;16.85;1.52;;;;;;;-1.58;100.00;99529.78;5072247;28;20582;-65
2021/12/16 07:07:59;;;;;;;11.30;1.92;;;;;;;-1.71;100.00;99527.59;5072204;28;20148;-65
2021/12/16 07:10:29;;;;;;;6.95;1.30;;;;;;;-1.61;100.00;99534.13;5071639;28;20045;-69
2021/12/16 07:13:00;;;;;;;7.85;1.45;;;;;;;-1.52;100.00;99533.91;5072456;28;20094;-63
2021/12/16 07:15:31;;;;;;;6.35;1.30;;;;;;;-1.60;100.00;99534.09;5089149;22;20035;-72
2021/12/16 07:18:00;;;;;;;3.50;1.10;;;;;;;-1.61;100.00;99540.06;5080459;28;20056;-73
2021/12/16 07:20:30;;;;;;;6.78;1.50;;;;;;;-1.42;100.00;99553.19;5072228;28;20131;-74
2021/12/16 07:22:58;;;;;;;9.07;1.70;;;;;;;-1.53;100.00;99550.09;5072065;28;20573;-72
2021/12/16 07:25:25;;;;;;;5.82;1.45;;;;;;;-1.45;100.00;99548.19;5072100;28;20148;-73
2021/12/16 07:27:52;;;;;;;10.50;1.73;;;;;;;-1.58;100.00;99547.63;5076845;28;20447;-72
2021/12/16 07:30:22;;;;;;;8.45;1.90;;;;;;;-1.58;100.00;99545.09;5091754;28;20553;-73
2021/12/16 07:32:50;;;;;;;8.25;1.90;;;;;;;-1.58;100.00;99555.28;5092070;28;20052;-73
2021/12/16 07:35:21;;;;;;;9.25;1.80;;;;;;;-1.68;100.00;99551.28;5087172;28;20503;-73
2021/12/16 07:37:49;;;;;;;7.60;1.15;;;;;;;-1.61;100.00;99552.00;5081767;28;20128;-74
2021/12/16 07:40:20;;;;;;;4.43;1.15;;;;;;;-1.66;100.00;99556.38;5090854;28;20589;-71
2021/12/16 07:42:59;;;;;;;6.22;1.55;;;;;;;-1.82;100.00;99556.72;5091765;28;20149;-72
2021/12/16 07:45:27;;;;;;;6.50;1.70;;;;;;;-1.73;100.00;99554.84;5091075;28;20058;-73
2021/12/16 07:47:54;;;;;;;10.27;1.85;;;;;;;-1.85;100.00;99567.00;5091235;28;20076;-72
2021/12/16 07:50:23;;;;;;;3.95;1.40;;;;;;;-1.85;100.00;99564.47;5072142;28;20123;-73
2021/12/16 07:52:51;;;;;;;7.57;1.25;;;;;;;-1.93;100.00;99568.03;5070712;28;20475;-71
2021/12/16 07:55:19;;;;;;;9.05;1.65;;;;;;;-1.98;100.00;99571.56;5074652;28;20044;-72
2021/12/16 07:57:46;;;;;;;3.67;1.30;;;;;;;-1.88;100.00;99573.88;5088684;28;20140;-72
2021/12/16 08:00:21;;;;;;;10.27;1.95;;;;;;;-1.96;100.00;99586.78;5091500;28;20521;-73
2021/12/16 08:02:48;;;;;;;6.43;1.50;;;;;;;-1.87;100.00;99594.25;5084528;28;20167;-73
2021/12/16 08:05:18;;;;;;;5.78;1.30;;;;;;;-2.04;100.00;99589.50;5082102;28;20087;-73
2021/12/16 08:07:46;;;;;;;7.57;1.50;;;;;;;-2.04;100.00;99593.78;5081251;28;20091;-72
2021/12/16 08:10:19;;;;;;;5.75;1.73;;;;;;;-1.94;100.00;99599.53;5077184;28;20056;-72
2021/12/16 08:12:46;;;;;;;8.45;1.52;;;;;;;-1.95;100.00;99598.69;5090475;28;20050;-72
2021/12/16 08:15:15;;;;;;;7.13;1.33;;;;;;;-2.00;100.00;99600.50;5091352;22;20147;-63
2021/12/16 08:17:42;;;;;;;11.05;1.70;;;;;;;-1.87;100.00;99601.06;5112076;28;20051;-68
2021/12/16 08:20:16;;;;;;;7.72;1.83;;;;;;;-1.90;100.00;99607.06;5098114;28;20123;-64
2021/12/16 08:22:44;;;;;;;13.60;1.40;;;;;;;-1.89;100.00;99611.28;5091725;28;20060;-69
2021/12/16 08:25:13;;;;;;;5.28;1.65;;;;;;;-1.98;100.00;99611.47;5095122;28;20055;-65
2021/12/16 08:27:41;;;;;;;7.72;1.52;;;;;;;-2.07;100.00;99614.25;5098606;28;20553;-64
2021/12/16 08:30:10;;;;;;;;;;;;;;;-2.16;100.00;99607.63;5114722;28;20574;-64
2021/12/16 08:32:37;;;;;;;4.90;1.60;;;;;;;-2.17;100.00;99613.59;5115323;28;19929;-65
2021/12/16 08:35:06;;;;;;;14.63;1.83;;;;;;;-2.17;100.00;99615.31;5115002;28;20131;-65
2021/12/16 08:37:33;;;;;;;8.10;1.40;;;;;;;-2.25;100.00;99628.22;5115370;28;20088;-68
2021/12/16 08:40:02;;;;;;;6.40;1.80;;;;;;;-2.26;100.00;99632.47;5114742;28;20059;-64
2021/12/16 08:42:31;;;;;;;6.18;1.20;;;;;;;-2.28;100.00;99634.22;5114894;28;20143;-65
2021/12/16 08:44:58;;;;;;;8.68;1.67;;;;;;;-2.19;100.00;99630.63;5115413;28;20075;-62
2021/12/16 08:47:25;;;;;;;6.95;1.63;;;;;;;-2.32;100.00;99630.03;5114097;28;20048;-64
2021/12/16 08:49:52;;;;;;;4.80;1.58;;;;;;;-2.31;100.00;99631.72;5114534;28;20048;-63
2021/12/16 08:52:22;;;;;;;5.85;1.80;;;;;;;-2.15;100.00;99627.16;5115097;28;20131;-62
2021/12/16 08:54:49;;;;;;;9.15;2.08;;;;;;;-2.15;100.00;99642.44;5115170;28;20067;-64
2021/12/16 08:57:16;;;;;;;7.85;1.80;;;;;;;-2.23;100.00;99642.59;5114190;28;20713;-64
2021/12/16 08:59:47;;;;;;;2.70;1.40;;;;;;;-2.38;100.00;99645.44;5115158;28;20098;-70
2021/12/16 09:02:15;;;;;;;9.60;1.65;;;;;;;-2.42;100.00;99654.00;5111615;28;20067;-64
2021/12/16 09:04:42;;;;;;;7.97;1.35;;;;;;;-2.34;100.00;99662.34;5114353;28;20066;-64
2021/12/16 09:07:10;;;;;;;;;;;;;;;-2.41;100.00;99671.00;5115078;28;20044;-63
2021/12/16 09:09:38;;;;;;;9.82;1.60;;;;;;;-2.31;100.00;99671.63;5114926;28;20056;-65
2021/12/16 09:12:11;;;;;;;3.42;1.20;;;;;;;-2.27;100.00;99666.44;5115028;28;20083;-63
2021/12/16 09:17:16;;;;;;;6.80;1.30;;;;;;;-2.23;100.00;99673.19;5091078;28;20044;-72
2021/12/16 09:19:46;;;;;;;6.95;2.05;;;;;;;-2.16;100.00;99676.41;5094212;28;20072;-71
2021/12/16 09:22:16;;;;;;;3.65;1.30;;;;;;;-2.27;100.00;99691.09;5093847;28;20044;-72
2021/12/16 09:24:43;;;;;;;9.23;1.83;;;;;;;-2.33;100.00;99691.22;5092166;28;20044;-72
2021/12/16 09:27:10;;;;;;;8.15;1.58;;;;;;;-2.43;100.00;99682.91;5094099;28;20118;-71
2021/12/16 09:29:38;;;;;;;10.55;1.58;;;;;;;-2.37;100.00;99689.59;5093876;28;20071;-71
2021/12/16 09:32:06;;;;;;;7.15;1.30;;;;;;;-2.35;100.00;99692.97;5091945;28;20078;-71
2021/12/16 09:34:36;;;;;;;5.57;1.40;;;;;;;-2.38;100.00;99710.84;5072747;28;20052;-72
2021/12/16 09:37:03;;;;;;;6.47;1.70;;;;;;;-2.35;100.00;99698.88;5073331;28;20533;-72
2021/12/16 09:39:31;;;;;;;4.68;1.30;;;;;;;-2.17;100.00;99700.25;5073176;28;20068;-71
2021/12/16 09:41:59;;;;;;;7.40;2.33;;;;;;;-2.20;100.00;99702.84;5078170;28;20070;-72
2021/12/16 09:44:29;;;;;;;7.97;1.63;;;;;;;-1.96;100.00;99714.25;5073186;28;20474;-70
2021/12/16 09:46:59;;;;;;;2.42;1.00;;;;;;;-2.02;100.00;99717.78;5084043;28;20075;-70
2021/12/16 09:49:26;;;;;;;9.20;1.50;;;;;;;-2.13;100.00;99721.41;5087627;28;20138;-71
2021/12/16 09:51:57;;;;;;;3.40;1.30;;;;;;;-2.14;100.00;99728.22;5072354;28;20688;-70
2021/12/16 09:54:27;;;;;;;5.00;1.20;;;;;;;-2.04;100.00;99732.25;5087412;28;20123;-71
2021/12/16 09:56:56;;;;;;;4.07;1.30;;;;;;;-1.94;100.00;99732.09;5089497;28;20139;-71
2021/12/16 09:59:25;;;;;;;3.92;1.52;;;;;;;-2.02;100.00;99732.25;5091002;28;20067;-71
2021/12/16 10:01:56;;;;;;;3.17;0.90;;;;;;;-2.03;100.00;99735.63;5085080;28;20135;-70
2021/12/16 10:04:31;;;;;;;4.70;1.20;;;;;;;-1.92;99.53;99751.59;5088174;28;20048;-72
2021/12/16 10:07:04;;;;;;;1.73;0.90;;;;;;;-2.05;100.00;99763.72;5073415;28;20076;-70
2021/12/16 10:09:31;;;;;;;4.93;1.13;;;;;;;-2.07;100.00;99762.06;5090397;28;20067;-71
2021/12/16 10:12:04;;;;;;;4.75;1.10;;;;;;;-1.92;99.80;99759.22;5092786;28;20132;-72
2021/12/16 10:14:46;;;;;;;3.95;1.05;;;;;;;-2.03;99.84;99769.66;5092773;28;20074;-71
2021/12/16 10:17:24;;;;;;;2.85;1.48;;;;;;;-2.01;100.00;99772.97;5081998;28;20048;-65
2021/12/16 10:19:52;;;;;;;2.28;1.17;;;;;;;-2.03;99.57;99779.84;5083977;28;20053;-63
2021/12/16 10:22:29;;;;;;;5.65;1.10;;;;;;;-1.95;99.52;99783.94;5079868;28;20047;-64
2021/12/16 10:24:58;;;;;;;4.55;1.40;;;;;;;-1.97;99.44;99778.88;5094664;28;20047;-63
2021/12/16 10:27:27;;;;;;;1.15;0.88;;;;;;;-1.95;99.28;99783.94;5113851;28;20054;-63
2021/12/16 10:29:58;;;;;;;4.13;1.25;;;;;;;-1.97;99.36;99782.25;5113718;28;20488;-64
2021/12/16 10:32:37;;;;;;;2.75;1.00;;;;;;;-1.85;99.02;99780.31;5113521;28;20047;-64
2021/12/16 10:35:07;;;;;;;3.72;0.90;;;;;;;-1.84;98.91;99782.03;5113560;28;20130;-64
2021/12/16 10:37:38;;;;;;;3.65;1.20;;;;;;;-1.90;98.97;99789.78;5113881;28;20055;-63
2021/12/16 10:40:28;;;;;;;5.90;1.00;;;;;;;-1.89;98.91;99791.47;5113727;28;20040;-66
2021/12/16 10:42:56;;;;;;;1.23;0.82;;;;;;;-1.80;98.81;99786.19;5113585;28;20054;-64
2021/12/16 10:45:29;;;;;;;2.58;1.23;;;;;;;-1.80;98.87;99781.06;5113029;28;20516;-68
2021/12/16 10:48:20;;;;;;;3.92;1.02;;;;;;;-1.64;98.09;99786.72;5113423;28;20048;-63
2021/12/16 10:51:10;;;;;;;2.13;1.00;;;;;;;-1.59;97.77;99795.13;5111836;28;20557;-65
2021/12/16 10:54:01;;;;;;;2.03;1.00;;;;;;;-1.47;97.45;99799.13;5087870;28;20109;-65
2021/12/16 10:56:34;;;;;;;3.10;1.10;;;;;;;-1.45;97.02;99800.78;5092618;28;20127;-64
2021/12/16 10:59:04;;;;;;;4.75;1.08;;;;;;;-1.52;97.47;99803.47;5092624;28;20075;-64
2021/12/16 11:01:48;;;;;;;3.38;1.27;;;;;;;-1.37;96.73;99806.53;5092729;28;20139;-63
2021/12/16 11:04:19;;;;;;;8.23;1.30;;;;;;;-1.43;97.21;99810.97;5090182;28;20082;-65
2021/12/16 11:06:49;;;;;;;1.52;1.00;;;;;;;-1.45;97.36;99816.06;5092715;28;20139;-67
2021/12/16 11:09:33;;;;;;;3.20;0.95;;;;;;;-1.38;96.56;99827.00;5092526;28;20071;-68
2021/12/16 11:12:10;;;;;;;2.33;1.00;;;;;;;-1.66;97.22;99831.84;5092670;28;20474;-65
2021/12/16 11:14:39;;;;;;;1.98;0.90;;;;;;;-1.69;97.55;99835.28;5092675;28;20131;-64
2021/12/16 11:17:10;;;;;;;4.72;1.10;;;;;;;-1.60;97.07;99840.19;5092677;28;20147;-65
2021/12/16 11:19:47;;;;;;;3.42;1.05;;;;;;;-1.64;97.40;99838.59;5092414;28;20131;-65
2021/12/16 11:22:16;;;;;;;4.65;1.23;;;;;;;-1.73;97.71;99840.47;5092533;28;20476;-66
2021/12/16 11:24:45;;;;;;;4.13;1.00;;;;;;;-1.72;97.79;99848.09;5092221;28;20055;-64
2021/12/16 11:27:34;;;;;;;5.03;1.20;;;;;;;-1.89;98.36;99845.84;5092306;28;20134;-66
2021/12/16 11:30:27;;;;;;;1.65;1.00;;;;;;;-1.92;98.12;99842.53;5092813;28;20134;-65
2021/12/16 11:32:56;;;;;;;3.40;0.82;;;;;;;-1.98;98.15;99859.63;5092238;28;20062;-64
2021/12/16 11:35:33;;;;;;;2.55;0.95;;;;;;;-2.00;98.38;99860.53;5091948;28;20071;-65
2021/12/16 11:38:04;;;;;;;1.45;0.90;;;;;;;-2.10;98.55;99857.28;5091902;28;20565;-65
2021/12/16 11:40:56;;;;;;;2.40;0.88;;;;;;;-2.16;99.10;99866.72;5092400;28;20138;-65
2021/12/16 11:43:36;;;;;;;4.25;1.15;;;;;;;-2.13;98.70;99866.69;5092303;28;20044;-66
2021/12/16 11:46:07;;;;;;;5.38;1.27;;;;;;;-2.18;98.70;99864.22;5091657;28;20044;-64
2021/12/16 11:48:40;;;;;;;2.63;1.23;;;;;;;-2.29;99.54;99866.94;5092301;28;20152;-64
2021/12/16 11:51:11;;;;;;;1.75;0.90;;;;;;;-2.13;99.11;99871.78;5092228;28;20044;-64
2021/12/16 11:53:46;;;;;;;2.63;0.90;;;;;;;-2.24;99.58;99882.16;5092059;28;20048;-65
2021/12/16 11:56:15;;;;;;;1.15;0.85;;;;;;;-2.15;99.21;99883.72;5091755;28;20127;-64
2021/12/16 11:58:44;;;;;;;2.33;1.10;;;;;;;-2.18;98.94;99889.72;5096232;28;20127;-64
2021/12/16 12:01:15;;;;;;;7.45;1.13;;;;;;;-2.16;99.10;99894.78;5096125;28;20139;-64
2021/12/16 12:03:42;;;;;;;2.45;0.90;;;;;;;-2.20;99.50;99892.28;5096387;28;20155;-65
2021/12/16 12:06:20;;;;;;;1.63;0.85;;;;;;;-2.27;99.30;99895.78;5096048;28;20132;-63
2021/12/16 12:08:49;;;;;;;2.00;1.08;;;;;;;-2.31;99.17;99900.94;5096102;28;20048;-64
2021/12/16 12:11:19;;;;;;;2.35;1.15;;;;;;;-2.44;99.97;99905.41;5095768;28;20048;-65
2021/12/16 12:13:50;;;;;;;2.78;0.80;;;;;;;-2.35;99.16;99909.53;5095613;28;20048;-65
2021/12/16 12:16:19;;;;;;;1.63;0.90;;;;;;;-2.48;99.61;99912.25;5096574;28;20139;-63
2021/12/16 12:18:49;;;;;;;3.55;0.90;;;;;;;-2.63;100.00;99912.47;5095958;28;20050;-63
2021/12/16 12:21:20;;;;;;;1.42;1.08;;;;;;;-2.59;100.00;99916.69;5095960;28;20044;-65
2021/12/16 12:23:48;;;;;;;4.40;1.08;;;;;;;-2.43;99.90;99928.31;5095702;28;20077;-68
2021/12/16 12:26:19;;;;;;;1.98;1.08;;;;;;;-2.56;99.50;99923.44;5095725;28;20055;-64
2021/12/16 12:28:47;;;;;;;1.40;1.00;;;;;;;-2.70;99.97;99921.06;5096030;28;20097;-64
2021/12/16 12:31:17;;;;;;;3.08;1.30;;;;;;;-2.72;100.00;99928.75;5095781;28;20478;-65
2021/12/16 12:33:44;;;;;;;2.25;1.08;;;;;;;-2.69;100.00;99920.22;5095634;28;20468;-64
2021/12/16 12:36:13;;;;;;;2.60;1.00;;;;;;;-2.49;98.98;99930.09;5095738;28;20559;-64
2021/12/16 12:38:40;;;;;;;1.65;0.77;;;;;;;-2.66;99.58;99933.75;5095686;28;20529;-64
2021/12/16 12:41:08;;;;;;;2.00;0.90;;;;;;;-2.76;99.67;99939.81;5095554;28;20086;-64
2021/12/16 12:43:37;;;;;;;3.33;1.05;;;;;;;-2.79;99.67;99942.41;5095462;28;20048;-64
2021/12/16 12:46:06;;;;;;;5.70;1.38;;;;;;;-2.71;99.29;99947.41;5095154;28;20051;-64
2021/12/16 12:48:35;;;;;;;1.52;0.90;;;;;;;-2.64;98.68;99956.66;5095311;28;20048;-64
2021/12/16 12:51:06;;;;;;;2.42;1.02;;;;;;;-2.77;99.31;99952.59;5095441;28;20177;-65
2021/12/16 12:53:35;;;;;;;1.10;0.70;;;;;;;-2.58;98.09;99953.16;5095411;28;20159;-68
2021/12/16 12:56:11;;;;;;;2.30;1.10;;;;;;;-2.78;98.99;99963.63;5095048;28;20142;-65
2021/12/16 12:58:53;;;;;;;2.78;0.82;;;;;;;-2.80;99.46;99970.44;5095387;28;20127;-65
2021/12/16 13:01:34;;;;;;;3.42;0.90;;;;;;;-2.90;98.90;99977.38;5095179;28;20475;-64
2021/12/16 13:04:04;;;;;;;1.05;0.80;;;;;;;-3.02;99.84;99975.78;5095095;28;20048;-65
2021/12/16 13:06:31;;;;;;;1.45;0.90;;;;;;;-3.13;100.00;99975.09;5095001;28;20147;-66
2021/12/16 13:08:59;;;;;;;3.60;0.88;;;;;;;-2.97;99.39;99975.75;5093913;28;20051;-67
2021/12/16 13:11:29;;;;;;;2.28;0.95;;;;;;;-3.20;99.81;99973.47;5091945;28;20048;-67
2021/12/16 13:14:07;;;;;;;0.88;0.80;;;;;;;-3.27;100.00;99985.41;5094493;28;20044;-67
2021/12/16 13:17:14;;;;;;;5.07;1.13;;;;;;;-3.27;100.00;99990.50;5092360;22;20052;-72
2021/12/16 13:28:34;;;;;;;1.63;1.00;;;;;;;-3.50;100.00;99996.66;5066989;28;20040;-74
2021/12/16 13:31:07;;;;;;;0.98;0.93;;;;;;;-3.54;100.00;100006.91;5074234;28;20135;-70
2021/12/16 13:33:42;;;;;;;3.53;1.45;;;;;;;-3.22;100.00;100011.66;5074272;28;20048;-69
2021/12/16 13:36:18;;;;;;;1.80;1.00;;;;;;;-3.43;100.00;100005.06;5074393;28;20045;-69
2021/12/16 13:38:48;;;;;;;2.90;1.23;;;;;;;-3.50;100.00;100017.00;5074727;28;20076;-70
2021/12/16 13:41:20;;;;;;;2.78;1.10;;;;;;;-3.63;100.00;100017.13;5074251;28;20049;-72
2021/12/16 13:44:00;;;;;;;1.73;1.10;;;;;;;-3.49;100.00;100025.50;5074147;28;20059;-70
2021/12/16 13:46:39;;;;;;;1.30;0.98;;;;;;;-3.54;100.00;100028.06;5074021;28;20040;-70
2021/12/16 14:03:47;;;;;;;1.50;1.10;;;;;;;-3.91;100.00;100049.56;5064489;28;20358;-70